Time;durP1;ratioP1;P1;durP2;ratioP2;P2;SDS_P1;SDS_P2;PMS_P1;PMS_P2;Temp;Humidity;BMP_temperature;BMP_pressure;BME280_temperature;BME280_humidity;BME280_pressure;Samples;Min_cycle;Max_cycle;Signal;HPM_P1;HPM_P2
2021/03/17 00:00:25;;;;;;;9.70;4.88;;;23.10;48.50;;;;;;5074267;28;20043;-57
2021/03/17 00:03:10;;;;;;;14.00;5.00;;;23.00;48.50;;;;;;5058697;28;20043;-57
2021/03/17 00:05:54;;;;;;;10.57;4.10;;;23.10;48.60;;;;;;5073981;28;20089;-57
2021/03/17 00:08:39;;;;;;;7.72;4.43;;;23.00;48.60;;;;;;5073795;28;20039;-58
2021/03/17 00:11:23;;;;;;;10.13;4.57;;;23.00;48.60;;;;;;5058379;28;20032;-58
2021/03/17 00:14:08;;;;;;;11.77;4.28;;;23.00;48.60;;;;;;5073499;28;20395;-57
2021/03/17 00:16:52;;;;;;;13.13;4.57;;;23.00;48.70;;;;;;5058581;28;20044;-57
2021/03/17 00:19:37;;;;;;;15.40;3.70;;;22.90;48.70;;;;;;5073405;28;20036;-57
2021/03/17 00:22:22;;;;;;;10.55;3.78;;;22.90;48.70;;;;;;5073260;28;20090;-58
2021/03/17 00:25:07;;;;;;;10.05;3.88;;;22.90;48.80;;;;;;5073576;28;20132;-57
2021/03/17 00:27:52;;;;;;;11.57;3.58;;;22.90;48.90;;;;;;5086152;28;20517;-57
2021/03/17 00:30:38;;;;;;;9.63;3.10;;;22.90;48.90;;;;;;5057691;28;20744;-53
2021/03/17 00:33:22;;;;;;;13.90;4.35;;;22.90;49.00;;;;;;5074476;28;20082;-57
2021/03/17 00:36:07;;;;;;;11.52;4.38;;;22.90;49.00;;;;;;5057025;28;20517;-53
2021/03/17 00:38:52;;;;;;;11.43;3.50;;;22.90;49.00;;;;;;5070983;28;20066;-57
2021/03/17 00:41:36;;;;;;;8.55;3.40;;;22.90;49.10;;;;;;5071642;28;20035;-58
2021/03/17 00:44:22;;;;;;;10.07;2.80;;;22.80;49.00;;;;;;5068338;28;20158;-53
2021/03/17 00:47:07;;;;;;;12.20;3.30;;;22.80;49.10;;;;;;5072718;28;20082;-54
2021/03/17 00:49:33;;;;;;;10.80;3.08;;;22.80;49.10;;;;;;5054812;28;20094;-52
2021/03/17 00:51:59;;;;;;;9.10;3.05;;;22.80;49.10;;;;;;5072753;28;20024;-53
2021/03/17 00:54:43;;;;;;;7.07;3.13;;;22.80;49.20;;;;;;5071913;28;20027;-52
2021/03/17 00:57:28;;;;;;;12.13;3.53;;;22.80;49.20;;;;;;5080104;28;20382;-53
2021/03/17 00:59:54;;;;;;;10.13;3.55;;;22.80;49.30;;;;;;5072352;28;20021;-57
2021/03/17 01:02:20;;;;;;;11.15;3.35;;;22.70;49.30;;;;;;5072945;28;20032;-58
2021/03/17 01:04:46;;;;;;;10.13;2.95;;;22.70;49.30;;;;;;5071990;28;20085;-57
2021/03/17 01:07:16;;;;;;;13.30;3.35;;;22.70;49.30;;;;;;5051713;28;20024;-53
2021/03/17 01:09:42;;;;;;;11.50;3.85;;;22.70;49.50;;;;;;5073142;28;20075;-53
2021/03/17 01:12:09;;;;;;;14.00;4.22;;;22.70;49.40;;;;;;5073228;28;20104;-53
2021/03/17 01:14:35;;;;;;;13.07;3.33;;;22.70;49.40;;;;;;5054967;28;20033;-53
2021/03/17 01:17:03;;;;;;;9.20;2.90;;;22.70;49.40;;;;;;5071985;28;20024;-53
2021/03/17 01:19:30;;;;;;;12.35;3.65;;;22.70;49.40;;;;;;5072868;28;20016;-52
2021/03/17 01:21:56;;;;;;;9.90;3.22;;;22.70;49.40;;;;;;5072729;28;20432;-53
2021/03/17 01:24:22;;;;;;;10.48;3.10;;;22.70;49.50;;;;;;5070595;28;20028;-53
2021/03/17 01:26:48;;;;;;;11.80;3.45;;;22.70;49.50;;;;;;5054095;28;20367;-52
2021/03/17 01:29:14;;;;;;;8.05;3.05;;;22.70;49.50;;;;;;5072794;28;20042;-53
2021/03/17 01:31:40;;;;;;;10.85;3.33;;;22.70;49.50;;;;;;5054200;28;20052;-53
2021/03/17 01:34:06;;;;;;;11.90;3.40;;;22.70;49.60;;;;;;5069633;28;20020;-52
2021/03/17 01:36:32;;;;;;;15.98;4.32;;;22.60;49.50;;;;;;5081057;28;20365;-53
2021/03/17 01:38:58;;;;;;;11.18;3.80;;;22.60;49.50;;;;;;5074492;28;20514;-53
2021/03/17 01:41:24;;;;;;;9.50;3.33;;;22.60;49.50;;;;;;5054079;28;20413;-53
2021/03/17 01:43:50;;;;;;;7.93;3.38;;;22.60;49.50;;;;;;5071898;28;20027;-53
2021/03/17 01:46:16;;;;;;;11.60;3.95;;;22.60;49.50;;;;;;5071903;28;20021;-52
2021/03/17 01:48:42;;;;;;;13.20;3.45;;;22.60;49.50;;;;;;5062457;28;20052;-52
2021/03/17 01:51:08;;;;;;;11.98;3.33;;;22.60;49.50;;;;;;5071684;28;20024;-52
2021/03/17 01:53:37;;;;;;;8.65;3.28;;;22.60;49.50;;;;;;5071380;28;20020;-52
2021/03/17 01:56:04;;;;;;;14.70;3.50;;;22.60;49.50;;;;;;5071092;28;20482;-52
2021/03/17 01:58:32;;;;;;;11.25;3.33;;;22.60;49.60;;;;;;5069956;28;20021;-52
2021/03/17 02:00:58;;;;;;;11.73;3.22;;;22.60;49.50;;;;;;5070815;28;20028;-53
2021/03/17 02:03:25;;;;;;;8.38;3.13;;;22.60;49.50;;;;;;5070206;28;20036;-52
2021/03/17 02:05:52;;;;;;;8.52;3.00;;;22.60;49.60;;;;;;5078634;28;20501;-52
2021/03/17 02:08:21;;;;;;;14.85;4.13;;;22.60;49.60;;;;;;5069799;28;20044;-51
2021/03/17 02:10:47;;;;;;;11.55;3.28;;;22.60;49.60;;;;;;5068658;28;20073;-53
2021/03/17 02:13:35;;;;;;;7.82;2.70;;;22.60;49.60;;;;;;5070001;28;20079;-52
2021/03/17 02:16:17;;;;;;;9.38;3.80;;;22.60;49.60;;;;;;5070822;28;20025;-52
2021/03/17 02:18:50;;;;;;;12.25;4.43;;;22.60;49.60;;;;;;5095822;28;20107;-52
2021/03/17 02:21:33;;;;;;;10.13;3.08;;;22.60;49.70;;;;;;5068933;28;20117;-52
2021/03/17 02:24:18;;;;;;;12.98;2.85;;;22.50;49.60;;;;;;5069323;28;20028;-52
2021/03/17 02:27:08;;;;;;;7.90;2.90;;;22.60;49.60;;;;;;5069910;28;20035;-52
2021/03/17 02:29:59;;;;;;;7.95;3.40;;;22.60;49.60;;;;;;5069802;28;20489;-53
2021/03/17 02:33:02;;;;;;;12.13;3.85;;;22.60;49.60;;;;;;5069482;28;20050;-53
2021/03/17 02:35:30;;;;;;;8.95;3.22;;;22.60;49.50;;;;;;5067619;28;20025;-52
2021/03/17 02:37:58;;;;;;;14.23;3.33;;;22.60;49.50;;;;;;5069643;28;20483;-52
2021/03/17 02:40:36;;;;;;;13.20;3.25;;;22.60;49.50;;;;;;5070331;28;20020;-52
2021/03/17 02:43:22;;;;;;;13.35;3.85;;;22.50;49.50;;;;;;5071296;28;20029;-53
2021/03/17 02:45:59;;;;;;;8.25;3.17;;;22.60;49.60;;;;;;5073994;28;20111;-53
2021/03/17 02:48:32;;;;;;;12.13;3.97;;;22.50;49.50;;;;;;5073873;28;20060;-53
2021/03/17 02:51:05;;;;;;;14.65;3.75;;;22.60;49.50;;;;;;5075750;28;20123;-53
2021/03/17 02:53:34;;;;;;;6.68;2.80;;;22.50;49.50;;;;;;5076574;28;20107;-53
2021/03/17 02:56:06;;;;;;;8.63;3.35;;;22.50;49.50;;;;;;5076109;28;20031;-53
2021/03/17 02:58:35;;;;;;;13.70;3.75;;;22.50;49.50;;;;;;5075128;28;20099;-53
2021/03/17 03:01:02;;;;;;;7.45;3.00;;;22.50;49.50;;;;;;5076278;28;20082;-53
2021/03/17 03:03:31;;;;;;;13.02;3.15;;;22.60;49.60;;;;;;5076424;28;20086;-53
2021/03/17 03:05:58;;;;;;;12.40;3.60;;;22.50;49.60;;;;;;5074985;28;20050;-52
2021/03/17 03:08:27;;;;;;;8.45;3.20;;;22.50;49.60;;;;;;5076053;28;20356;-53
2021/03/17 03:10:55;;;;;;;14.18;3.47;;;22.50;49.60;;;;;;5074704;28;20123;-53
2021/03/17 03:13:25;;;;;;;8.27;2.85;;;22.60;49.60;;;;;;5073906;28;20024;-53
2021/03/17 03:15:53;;;;;;;8.83;3.63;;;22.50;49.60;;;;;;5107367;28;20033;-53
2021/03/17 03:18:21;;;;;;;10.60;3.05;;;22.50;49.60;;;;;;5075476;28;20600;-53
2021/03/17 03:20:48;;;;;;;13.35;3.65;;;22.50;49.60;;;;;;5075918;28;20408;-53
2021/03/17 03:23:18;;;;;;;8.07;3.72;;;22.50;49.60;;;;;;5076146;28;20482;-53
2021/03/17 03:25:46;;;;;;;7.60;3.50;;;22.50;49.60;;;;;;5074694;28;20374;-52
2021/03/17 03:28:14;;;;;;;10.13;3.70;;;22.50;49.60;;;;;;5075661;28;20027;-53
2021/03/17 03:30:45;;;;;;;7.95;3.20;;;22.50;49.60;;;;;;5075603;28;20031;-53
2021/03/17 03:33:11;;;;;;;;;;;22.50;49.60;;;;;;5076095;28;20028;-53
2021/03/17 03:35:38;;;;;;;11.63;3.63;;;22.50;49.60;;;;;;5075402;28;19911;-52
2021/03/17 03:38:13;;;;;;;9.25;3.53;;;22.60;49.40;;;;;;5075294;28;20032;-53
2021/03/17 03:40:41;;;;;;;8.43;3.40;;;22.50;49.40;;;;;;5107894;28;20075;-52
2021/03/17 03:43:08;;;;;;;7.63;3.05;;;22.60;49.50;;;;;;5074329;28;20028;-52
2021/03/17 03:45:36;;;;;;;9.30;3.53;;;22.50;49.50;;;;;;5075036;28;20060;-52
2021/03/17 03:48:06;;;;;;;13.45;3.22;;;22.50;49.40;;;;;;5075383;28;20055;-52
2021/03/17 03:50:35;;;;;;;;;;;22.50;49.50;;;;;;5075311;28;20089;-52
2021/03/17 03:53:16;;;;;;;9.18;3.20;;;22.50;49.50;;;;;;5056657;28;20332;-52
2021/03/17 03:55:53;;;;;;;9.50;3.42;;;22.60;49.30;;;;;;5073322;28;20029;-52
2021/03/17 03:58:57;;;;;;;12.18;3.60;;;22.60;49.30;;;;;;5056363;28;20458;-52
2021/03/17 04:01:38;;;;;;;8.35;3.08;;;22.50;49.30;;;;;;5056519;28;20117;-53
2021/03/17 04:04:10;;;;;;;11.30;2.92;;;22.50;49.30;;;;;;5057139;28;20055;-52
2021/03/17 04:06:36;;;;;;;7.88;3.05;;;22.50;49.40;;;;;;5074962;28;20024;-52
2021/03/17 04:09:04;;;;;;;8.93;3.13;;;22.50;49.30;;;;;;5075074;28;20028;-52
2021/03/17 04:11:30;;;;;;;7.32;3.53;;;22.50;49.40;;;;;;5074719;28;20029;-52
2021/03/17 04:14:03;;;;;;;11.77;3.60;;;22.50;49.50;;;;;;5074750;28;20025;-52
2021/03/17 04:16:31;;;;;;;8.68;3.22;;;22.40;49.50;;;;;;5073801;28;20471;-53
2021/03/17 04:18:59;;;;;;;11.77;3.53;;;22.40;49.40;;;;;;5089663;28;20031;-53
2021/03/17 04:21:27;;;;;;;12.25;3.60;;;22.40;50.00;;;;;;5074142;28;20478;-53
2021/03/17 04:23:56;;;;;;;6.47;3.00;;;22.40;49.40;;;;;;5056436;28;20037;-53
2021/03/17 04:26:24;;;;;;;5.93;2.85;;;22.40;49.40;;;;;;5074042;28;20463;-52
2021/03/17 04:28:52;;;;;;;9.38;2.92;;;22.40;49.50;;;;;;5073692;28;20093;-52
2021/03/17 04:31:19;;;;;;;7.40;3.03;;;22.40;49.50;;;;;;5055239;28;20039;-53
2021/03/17 04:33:46;;;;;;;8.90;3.67;;;22.40;49.50;;;;;;5074289;28;20533;-52
2021/03/17 04:36:13;;;;;;;7.20;3.10;;;22.40;49.40;;;;;;5074205;28;20078;-52
2021/03/17 04:38:40;;;;;;;8.70;3.10;;;22.40;49.50;;;;;;5074440;28;20021;-52
2021/03/17 04:41:07;;;;;;;8.32;3.13;;;22.40;50.20;;;;;;5074257;28;20051;-53
2021/03/17 04:43:37;;;;;;;6.05;3.08;;;22.40;49.60;;;;;;5089786;28;20028;-53
2021/03/17 04:46:04;;;;;;;7.22;3.25;;;22.40;49.60;;;;;;5074503;28;20478;-53
2021/03/17 04:48:31;;;;;;;9.73;4.30;;;22.40;49.60;;;;;;5073551;28;20509;-53
2021/03/17 04:50:58;;;;;;;9.93;3.38;;;22.30;49.70;;;;;;5056275;28;20544;-53
2021/03/17 04:53:25;;;;;;;13.10;4.55;;;22.30;49.60;;;;;;5089796;28;20103;-53
2021/03/17 04:55:51;;;;;;;6.53;3.22;;;22.30;49.60;;;;;;5073912;28;20493;-53
2021/03/17 04:58:23;;;;;;;7.95;3.42;;;22.30;49.60;;;;;;5073607;28;20091;-53
2021/03/17 05:00:50;;;;;;;7.05;3.60;;;22.30;49.70;;;;;;5071866;28;20028;-53
2021/03/17 05:03:24;;;;;;;10.70;4.18;;;22.30;49.70;;;;;;5074231;28;20028;-53
2021/03/17 05:05:54;;;;;;;6.80;3.22;;;22.30;49.70;;;;;;5073746;28;20024;-52
2021/03/17 05:08:22;;;;;;;5.93;3.00;;;22.30;49.70;;;;;;5073194;28;20111;-53
2021/03/17 05:10:48;;;;;;;8.95;3.55;;;22.20;49.70;;;;;;5073761;28;20025;-53
2021/03/17 05:13:16;;;;;;;10.32;4.18;;;22.20;49.70;;;;;;5073753;28;20042;-53
2021/03/17 05:15:43;;;;;;;10.48;4.25;;;22.20;49.70;;;;;;5072647;28;20021;-53
2021/03/17 05:18:11;;;;;;;10.77;4.07;;;22.20;49.70;;;;;;5072950;28;20383;-53
2021/03/17 05:20:41;;;;;;;7.10;3.17;;;22.20;49.70;;;;;;5055309;28;20032;-53
2021/03/17 05:23:07;;;;;;;7.07;3.90;;;22.20;49.70;;;;;;5073502;28;20040;-54
2021/03/17 05:25:33;;;;;;;9.95;3.75;;;22.20;49.70;;;;;;5073388;28;20029;-54
2021/03/17 05:28:05;;;;;;;5.50;3.75;;;22.20;49.70;;;;;;5055355;28;20387;-54
2021/03/17 05:30:37;;;;;;;9.90;4.72;;;22.20;49.70;;;;;;5055744;28;20486;-54
2021/03/17 05:33:07;;;;;;;8.38;4.40;;;22.20;49.70;;;;;;5073045;28;20036;-54
2021/03/17 05:35:33;;;;;;;15.68;4.15;;;22.20;49.70;;;;;;5055741;28;20032;-54
2021/03/17 05:38:00;;;;;;;8.27;4.15;;;22.20;49.60;;;;;;5073236;28;20029;-54
2021/03/17 05:40:26;;;;;;;7.82;4.07;;;22.20;49.70;;;;;;5073229;28;20028;-54
2021/03/17 05:42:53;;;;;;;8.38;4.15;;;22.10;49.60;;;;;;5072867;28;20052;-54
2021/03/17 05:45:22;;;;;;;9.18;4.05;;;22.20;49.70;;;;;;5073196;28;20103;-54
2021/03/17 05:47:50;;;;;;;8.68;3.70;;;22.20;49.70;;;;;;5072966;28;20049;-54
2021/03/17 05:50:22;;;;;;;11.38;4.55;;;22.20;49.70;;;;;;5072814;28;20036;-54
2021/03/17 05:52:48;;;;;;;6.55;3.75;;;22.20;49.70;;;;;;5073079;28;20031;-52
2021/03/17 05:55:16;;;;;;;8.90;4.32;;;22.10;49.60;;;;;;5073075;28;20028;-54
2021/03/17 05:57:43;;;;;;;8.18;3.85;;;22.20;49.70;;;;;;5073251;28;20482;-54
2021/03/17 06:00:21;;;;;;;7.55;4.10;;;22.10;49.60;;;;;;5073027;28;20510;-54
2021/03/17 06:02:48;;;;;;;9.30;4.38;;;22.10;49.60;;;;;;5072960;28;20032;-55
2021/03/17 06:05:17;;;;;;;8.88;4.28;;;22.10;49.60;;;;;;5055156;28;20119;-52
2021/03/17 06:07:54;;;;;;;9.00;4.28;;;22.10;49.60;;;;;;5072785;28;20036;-55
2021/03/17 06:10:21;;;;;;;7.53;3.63;;;22.10;49.60;;;;;;5072688;28;20351;-54
2021/03/17 06:12:52;;;;;;;10.75;4.68;;;22.10;49.60;;;;;;5072787;28;20039;-53
2021/03/17 06:15:23;;;;;;;7.70;4.30;;;22.10;49.60;;;;;;5088695;28;20100;-54
2021/03/17 06:17:54;;;;;;;10.05;5.50;;;22.10;49.60;;;;;;5072766;28;20040;-53
2021/03/17 06:20:20;;;;;;;8.40;4.07;;;22.10;49.60;;;;;;5054698;28;20044;-54
2021/03/17 06:22:47;;;;;;;7.18;4.57;;;22.10;49.60;;;;;;5054913;28;20032;-54
2021/03/17 06:25:14;;;;;;;8.75;4.25;;;22.10;49.60;;;;;;5054733;28;20116;-55
2021/03/17 06:27:42;;;;;;;7.55;4.80;;;22.10;49.60;;;;;;5052583;28;20052;-53
2021/03/17 06:30:11;;;;;;;10.13;4.30;;;22.10;49.60;;;;;;5072369;28;20036;-54
2021/03/17 06:32:37;;;;;;;10.65;5.22;;;22.10;49.60;;;;;;5072741;28;20024;-53
2021/03/17 06:35:16;;;;;;;7.97;4.50;;;22.10;49.60;;;;;;5072733;28;20040;-54
2021/03/17 06:37:42;;;;;;;8.82;4.82;;;22.10;49.60;;;;;;5054601;28;20025;-51
2021/03/17 06:40:36;;;;;;;9.00;4.57;;;22.10;49.60;;;;;;5072337;28;20370;-54
2021/03/17 06:43:04;;;;;;;8.40;4.55;;;22.00;49.50;;;;;;5070268;28;20062;-54
2021/03/17 06:45:36;;;;;;;9.18;4.70;;;22.10;49.50;;;;;;5072328;28;20099;-54
2021/03/17 06:48:22;;;;;;;11.85;5.03;;;22.00;49.40;;;;;;5059373;28;20107;-54
2021/03/17 06:51:11;;;;;;;9.25;4.28;;;22.00;49.50;;;;;;5092678;28;20032;-53
2021/03/17 06:53:38;;;;;;;9.20;4.93;;;22.00;49.50;;;;;;5074436;28;20551;-54
2021/03/17 06:56:20;;;;;;;9.02;4.90;;;22.00;49.40;;;;;;5092696;28;20051;-51
2021/03/17 06:58:51;;;;;;;9.70;5.03;;;22.00;49.40;;;;;;5092760;28;20106;-52
2021/03/17 07:01:35;;;;;;;9.38;4.68;;;22.00;49.40;;;;;;5092822;28;20043;-52
2021/03/17 07:04:07;;;;;;;9.23;5.03;;;22.00;49.50;;;;;;5106805;28;20043;-52
2021/03/17 07:06:38;;;;;;;11.45;4.88;;;22.00;49.40;;;;;;5091087;28;20047;-53
2021/03/17 07:09:26;;;;;;;10.57;4.30;;;22.00;49.40;;;;;;5091783;28;20500;-53
2021/03/17 07:12:04;;;;;;;11.68;6.78;;;22.00;49.50;;;;;;5092271;28;20115;-52
2021/03/17 07:14:43;;;;;;;11.57;7.15;;;22.00;49.30;;;;;;5090975;28;20161;-52
2021/03/17 07:17:25;;;;;;;17.17;10.10;;;22.00;49.30;;;;;;5091817;28;20036;-53
2021/03/17 07:19:51;;;;;;;44.85;35.72;;;22.00;49.40;;;;;;5092661;28;20028;-53
2021/03/17 07:22:17;;;;;;;51.15;41.95;;;22.00;49.20;;;;;;5091672;28;20112;-53
2021/03/17 07:24:51;;;;;;;73.70;65.60;;;22.00;49.10;;;;;;5088691;28;20032;-56
2021/03/17 07:27:26;;;;;;;75.25;66.78;;;22.00;49.10;;;;;;5091107;28;20397;-52
2021/03/17 07:29:58;;;;;;;84.53;68.97;;;22.00;49.10;;;;;;5070331;28;20111;-54
2021/03/17 07:32:28;;;;;;;85.20;74.93;;;22.00;49.00;;;;;;5085208;28;20029;-52
2021/03/17 07:34:54;;;;;;;88.40;78.85;;;22.00;49.10;;;;;;5093613;28;20367;-53
2021/03/17 07:37:26;;;;;;;96.07;79.25;;;22.00;49.00;;;;;;5077098;28;20099;-53
2021/03/17 07:39:56;;;;;;;89.85;76.82;;;22.00;49.10;;;;;;5093764;28;20024;-53
2021/03/17 07:42:24;;;;;;;83.75;70.50;;;22.00;49.00;;;;;;5102261;28;20028;-55
2021/03/17 07:44:50;;;;;;;72.57;57.47;;;22.00;49.10;;;;;;5102478;28;20063;-53
2021/03/17 07:47:16;;;;;;;81.60;62.90;;;22.00;49.00;;;;;;5094220;28;20408;-54
2021/03/17 07:49:47;;;;;;;74.28;63.55;;;22.00;49.00;;;;;;5074539;28;20082;-56
2021/03/17 07:52:22;;;;;;;71.00;55.05;;;22.10;49.10;;;;;;5090146;28;20461;-56
2021/03/17 07:54:53;;;;;;;71.93;57.08;;;22.00;49.10;;;;;;5074558;28;20077;-55
2021/03/17 07:57:23;;;;;;;83.90;64.38;;;22.10;49.20;;;;;;5074108;28;20067;-57
2021/03/17 07:59:50;;;;;;;109.93;80.30;;;22.10;49.10;;;;;;5072478;28;20028;-60
2021/03/17 08:02:18;;;;;;;170.95;145.27;;;22.10;49.00;;;;;;5073343;28;20029;-58
2021/03/17 08:04:46;;;;;;;220.13;185.90;;;22.10;48.90;;;;;;5073216;28;20021;-60
2021/03/17 08:07:13;;;;;;;193.07;165.77;;;22.20;48.90;;;;;;5073292;28;20029;-60
2021/03/17 08:09:39;;;;;;;173.38;142.65;;;22.20;49.00;;;;;;5073426;28;20017;-60
2021/03/17 08:12:11;;;;;;;160.75;131.52;;;22.20;48.90;;;;;;5073132;28;20351;-60
2021/03/17 08:14:43;;;;;;;154.63;121.63;;;22.20;48.90;;;;;;5073274;28;20024;-61
2021/03/17 08:17:10;;;;;;;129.00;103.97;;;22.30;49.00;;;;;;5073279;28;20039;-60
2021/03/17 08:19:36;;;;;;;127.40;98.40;;;22.30;48.90;;;;;;5073218;28;20028;-60
2021/03/17 08:22:06;;;;;;;116.22;89.88;;;22.40;49.50;;;;;;5073134;28;20036;-60
2021/03/17 08:24:33;;;;;;;104.22;82.63;;;22.40;48.80;;;;;;5073245;28;20130;-59
2021/03/17 08:27:20;;;;;;;98.22;75.93;;;22.40;48.80;;;;;;5072474;28;20033;-58
2021/03/17 08:29:49;;;;;;;84.78;67.30;;;22.40;48.70;;;;;;5070997;28;20788;-60
2021/03/17 08:32:18;;;;;;;58.83;43.33;;;22.50;48.60;;;;;;5072435;28;20104;-62
2021/03/17 08:34:57;;;;;;;51.60;31.90;;;22.50;48.40;;;;;;5070559;28;20388;-55
2021/03/17 08:37:48;;;;;;;42.63;24.83;;;22.50;48.30;;;;;;5066817;28;20029;-55
2021/03/17 08:40:44;;;;;;;75.50;62.70;;;22.60;48.30;;;;;;5084460;28;20080;-54
2021/03/17 08:43:28;;;;;;;65.43;51.25;;;22.60;48.30;;;;;;5069066;28;20039;-54
2021/03/17 08:46:13;;;;;;;49.83;40.20;;;22.60;48.20;;;;;;5073868;28;20029;-55
2021/03/17 08:49:13;;;;;;;54.25;42.25;;;22.70;48.10;;;;;;5073949;28;20079;-55
2021/03/17 08:51:46;;;;;;;49.33;36.00;;;22.70;48.20;;;;;;5041246;28;20145;-55
2021/03/17 08:54:45;;;;;;;64.22;50.45;;;22.70;48.10;;;;;;5056121;28;20032;-56
2021/03/17 08:57:16;;;;;;;191.15;158.50;;;22.70;48.10;;;;;;5073659;28;20039;-56
2021/03/17 08:59:45;;;;;;;108.18;88.57;;;22.70;48.00;;;;;;5073808;28;20082;-55
2021/03/17 09:02:24;;;;;;;75.90;62.67;;;22.80;48.10;;;;;;5073322;28;20024;-55
2021/03/17 09:05:04;;;;;;;172.68;137.93;;;22.80;48.10;;;;;;5072881;28;20043;-54
2021/03/17 09:07:35;;;;;;;81.60;68.00;;;22.80;48.10;;;;;;5072623;28;20047;-54
2021/03/17 09:10:07;;;;;;;;;;;22.80;48.00;;;;;;5073559;28;20792;-55
2021/03/17 09:12:33;;;;;;;49.92;39.80;;;22.90;48.40;;;;;;5055995;28;20336;-55
2021/03/17 09:15:11;;;;;;;68.88;57.20;;;23.00;47.80;;;;;;5073225;28;20025;-55
2021/03/17 09:17:55;;;;;;;49.45;37.30;;;23.00;47.80;;;;;;5073634;28;20486;-55
2021/03/17 09:20:24;;;;;;;30.23;16.73;;;23.00;47.90;;;;;;5055961;28;20139;-55
2021/03/17 09:23:18;;;;;;;17.50;10.32;;;23.10;47.90;;;;;;5068164;28;20044;-56
2021/03/17 09:25:45;;;;;;;11.98;6.05;;;23.00;47.90;;;;;;5079588;28;20051;-55
2021/03/17 09:28:20;;;;;;;12.13;6.22;;;23.10;47.60;;;;;;5086875;28;20124;-55
2021/03/17 09:31:11;;;;;;;13.50;8.32;;;23.10;47.60;;;;;;5058373;28;20032;-55
2021/03/17 09:33:42;;;;;;;15.50;9.23;;;23.10;47.50;;;;;;5071230;28;20032;-56
2021/03/17 09:36:12;;;;;;;13.25;7.40;;;23.20;47.50;;;;;;5082470;28;20028;-55
2021/03/17 09:38:47;;;;;;;13.55;7.40;;;23.20;47.30;;;;;;5064218;28;20079;-55
2021/03/17 09:41:20;;;;;;;12.98;5.72;;;23.30;47.10;;;;;;5074954;28;20040;-56
2021/03/17 09:43:57;;;;;;;14.10;5.93;;;23.30;46.40;;;;;;5079265;28;20041;-71
2021/03/17 09:46:36;;;;;;;12.70;5.60;;;23.40;46.20;;;;;;5045359;28;20036;-76
2021/03/17 09:49:04;;;;;;;10.27;5.43;;;23.50;45.60;;;;;;5062319;28;20052;-76
2021/03/17 09:51:42;;;;;;;6.70;3.10;;;23.60;44.90;;;;;;5063009;28;20410;-76
2021/03/17 09:54:11;;;;;;;4.78;2.45;;;23.80;43.30;;;;;;5060190;28;20475;-77
2021/03/17 09:56:52;;;;;;;6.60;2.53;;;24.10;42.20;;;;;;5062508;28;20085;-76
2021/03/17 09:59:19;;;;;;;4.95;2.13;;;24.40;41.70;;;;;;5057644;28;20474;-75
2021/03/17 10:01:53;;;;;;;10.77;2.83;;;24.80;41.10;;;;;;5092703;28;20028;-75
2021/03/17 10:04:21;;;;;;;7.68;2.10;;;25.10;40.20;;;;;;5057704;28;20036;-75
2021/03/17 10:06:48;;;;;;;5.13;2.00;;;25.40;39.70;;;;;;5074415;28;20020;-74
2021/03/17 10:09:13;;;;;;;5.15;2.00;;;25.80;39.50;;;;;;5074028;28;20043;-74
2021/03/17 10:11:40;;;;;;;10.82;2.40;;;26.10;38.90;;;;;;5073956;28;20390;-75
2021/03/17 10:14:16;;;;;;;5.82;1.80;;;26.40;38.40;;;;;;5092088;28;20385;-75
2021/03/17 10:16:43;;;;;;;3.50;1.83;;;26.80;37.20;;;;;;5107715;28;20056;-74
2021/03/17 10:19:15;;;;;;;5.70;2.47;;;27.10;37.70;;;;;;5091984;28;20444;-74
2021/03/17 10:21:45;;;;;;;6.20;2.17;;;27.40;36.70;;;;;;5056988;28;20363;-74
2021/03/17 10:24:11;;;;;;;9.43;1.92;;;27.70;35.00;;;;;;5068245;28;20028;-74
2021/03/17 10:26:40;;;;;;;7.65;2.03;;;27.90;35.50;;;;;;5051537;28;20040;-74
2021/03/17 10:29:07;;;;;;;8.57;2.33;;;28.10;34.90;;;;;;5033879;28;20120;-74
2021/03/17 10:31:39;;;;;;;16.25;3.42;;;28.30;34.70;;;;;;5034422;28;20028;-62
2021/03/17 10:34:14;;;;;;;10.25;2.95;;;28.40;34.60;;;;;;5034698;28;20044;-62
2021/03/17 10:36:40;;;;;;;60.50;53.80;;;28.40;34.30;;;;;;5052421;28;20033;-60
2021/03/17 10:39:06;;;;;;;13.10;5.30;;;28.50;34.30;;;;;;5052067;28;20048;-59
2021/03/17 10:41:46;;;;;;;30.67;22.92;;;28.50;34.10;;;;;;5070046;28;20446;-60
2021/03/17 10:44:17;;;;;;;29.23;22.60;;;28.40;33.90;;;;;;5050956;28;20432;-60
2021/03/17 10:47:08;;;;;;;18.92;13.10;;;28.40;33.60;;;;;;5055483;28;20036;-59
2021/03/17 10:49:45;;;;;;;8.57;5.85;;;28.20;34.00;;;;;;5048254;28;20119;-59
2021/03/17 10:52:12;;;;;;;9.40;4.07;;;28.10;33.00;;;;;;5053929;28;20497;-60
2021/03/17 10:54:43;;;;;;;5.53;2.03;;;28.00;32.80;;;;;;5071374;28;20024;-60
2021/03/17 10:57:09;;;;;;;10.32;2.53;;;27.80;32.80;;;;;;5071587;28;20031;-60
2021/03/17 10:59:38;;;;;;;5.28;2.47;;;27.60;33.10;;;;;;5071151;28;20025;-60
2021/03/17 11:02:21;;;;;;;7.75;1.67;;;27.40;33.00;;;;;;5071257;28;20025;-60
2021/03/17 11:05:08;;;;;;;7.95;2.00;;;27.30;33.80;;;;;;5054301;28;20093;-61
2021/03/17 11:08:00;;;;;;;6.68;1.85;;;27.10;33.90;;;;;;5074273;28;20245;-59
2021/03/17 11:10:32;;;;;;;140.23;125.03;;;27.00;33.60;;;;;;5088982;28;20040;-61
2021/03/17 11:13:21;;;;;;;218.38;196.13;;;26.90;33.50;;;;;;5073858;28;20032;-66
2021/03/17 11:15:48;;;;;;;123.75;110.88;;;26.80;34.00;;;;;;5075931;28;20033;-65
2021/03/17 11:18:23;;;;;;;39.72;33.83;;;26.70;34.40;;;;;;5075953;28;20092;-65
2021/03/17 11:20:50;;;;;;;30.17;25.33;;;26.60;34.50;;;;;;5057090;28;20063;-65
2021/03/17 11:23:26;;;;;;;15.88;13.80;;;26.50;34.50;;;;;;5057386;28;20038;-64
2021/03/17 11:25:55;;;;;;;25.60;21.60;;;26.40;34.60;;;;;;5075414;28;20497;-64
2021/03/17 11:28:24;;;;;;;15.07;10.18;;;26.30;35.00;;;;;;5054963;28;20032;-59
2021/03/17 11:30:56;;;;;;;6.93;4.15;;;26.30;35.10;;;;;;5075613;28;20032;-60
2021/03/17 11:33:22;;;;;;;8.00;2.70;;;26.20;35.00;;;;;;5074996;28;20462;-58
2021/03/17 11:35:50;;;;;;;7.85;4.45;;;26.20;35.40;;;;;;5055540;28;20048;-59
2021/03/17 11:38:16;;;;;;;8.23;3.10;;;26.10;35.30;;;;;;5075419;28;20035;-64
2021/03/17 11:40:43;;;;;;;6.32;2.15;;;26.10;35.40;;;;;;5075775;28;20099;-64
2021/03/17 11:43:20;;;;;;;2.38;1.50;;;26.10;35.40;;;;;;5075411;28;20028;-63
2021/03/17 11:45:48;;;;;;;6.45;2.20;;;26.00;35.20;;;;;;5074527;28;20048;-64
2021/03/17 11:48:15;;;;;;;5.38;2.40;;;26.00;35.20;;;;;;5062536;28;20044;-64
2021/03/17 11:50:44;;;;;;;3.28;1.50;;;26.00;35.20;;;;;;5074743;28;20642;-64
2021/03/17 11:53:11;;;;;;;6.85;1.60;;;26.00;35.30;;;;;;5075508;28;20079;-65
2021/03/17 11:55:39;;;;;;;5.57;1.95;;;26.00;35.40;;;;;;5090560;28;20033;-65
2021/03/17 11:58:05;;;;;;;6.10;2.22;;;25.90;35.50;;;;;;5072885;28;20024;-64
2021/03/17 12:00:32;;;;;;;7.60;2.30;;;25.90;35.70;;;;;;5073385;28;20107;-65
2021/03/17 12:02:58;;;;;;;8.30;2.70;;;25.80;35.80;;;;;;5074683;28;20401;-63
2021/03/17 12:05:25;;;;;;;78.75;70.18;;;25.80;36.00;;;;;;5074827;28;20031;-63
2021/03/17 12:07:51;;;;;;;37.42;30.63;;;25.80;36.20;;;;;;5074102;28;20470;-64
2021/03/17 12:10:18;;;;;;;28.17;21.10;;;25.90;36.40;;;;;;5073405;28;20039;-59
2021/03/17 12:12:45;;;;;;;8.57;5.18;;;25.90;36.50;;;;;;5068342;28;20035;-60
2021/03/17 12:15:16;;;;;;;6.03;2.17;;;25.90;36.50;;;;;;5054516;28;20025;-60
2021/03/17 12:17:42;;;;;;;9.45;2.38;;;25.90;35.70;;;;;;5089775;28;20036;-60
2021/03/17 12:20:09;;;;;;;5.68;2.22;;;25.90;36.00;;;;;;5074310;28;20059;-60
2021/03/17 12:22:36;;;;;;;10.77;2.53;;;25.80;36.00;;;;;;5074425;28;20078;-59
2021/03/17 12:25:04;;;;;;;5.00;1.60;;;25.80;36.00;;;;;;5074344;28;20051;-59
2021/03/17 12:27:32;;;;;;;5.53;2.08;;;25.80;36.00;;;;;;5056313;28;20029;-60
2021/03/17 12:29:58;;;;;;;5.30;2.10;;;25.80;36.00;;;;;;5074268;28;20020;-60
2021/03/17 12:32:24;;;;;;;7.90;2.50;;;25.80;36.00;;;;;;5074481;28;20058;-60
2021/03/17 12:34:50;;;;;;;7.22;2.33;;;25.80;36.00;;;;;;5073941;28;20029;-60
2021/03/17 12:37:17;;;;;;;4.55;1.98;;;25.70;36.10;;;;;;5078899;28;20467;-61
2021/03/17 12:39:42;;;;;;;5.40;2.35;;;25.70;36.20;;;;;;5072406;28;20059;-59
2021/03/17 12:42:09;;;;;;;6.95;2.13;;;25.70;36.40;;;;;;5065238;28;20036;-60
2021/03/17 12:44:37;;;;;;;6.25;2.03;;;25.70;36.60;;;;;;5035825;28;20470;-60
2021/03/17 12:47:04;;;;;;;7.68;2.58;;;25.70;36.70;;;;;;5052440;28;20146;-60
2021/03/17 12:49:31;;;;;;;7.57;2.22;;;25.70;36.80;;;;;;5053343;28;20029;-60
2021/03/17 12:51:57;;;;;;;5.28;1.77;;;25.70;37.50;;;;;;5053586;28;20029;-61
2021/03/17 12:54:23;;;;;;;6.53;2.28;;;25.70;36.90;;;;;;5068441;28;20697;-60
2021/03/17 12:56:49;;;;;;;10.27;3.20;;;25.80;37.20;;;;;;5090768;28;20842;-60
2021/03/17 12:59:16;;;;;;;6.32;2.25;;;25.80;37.20;;;;;;5096858;28;20020;-58
2021/03/17 13:01:42;;;;;;;12.32;2.42;;;25.80;37.10;;;;;;5065536;28;20039;-63
2021/03/17 13:04:08;;;;;;;6.53;2.53;;;25.80;37.00;;;;;;5082534;28;20158;-61